METAR AND TAF INFORMATION
METAR FOR SBJU
ADDS - METARS form results

(2118 UTC 22 May 2019)
Data provider http://aviationweather.gov/metar/data/
 
METAR text: SBJU 222100Z 00000KT CAVOK 29/21 Q1014
Conditions at: SBJU (JUAZEIRO D NORTE, BR) observed 2100 UTC 22 May 2019
Temperature: 29.0°C (84°F)
Dewpoint: 21.0°C (70°F) [RH = 62%]
Pressure (altimeter): 29.94 inches Hg (1014.0 mb)
Winds: calm
Visibility: 6 or more miles (10+ km)
Ceiling: ceiling and visibility are OK
Clouds: unknown
Weather: no significant weather observed at this time

 AIRPORT MAP

 RUNWAY INFORMATION
Runway 13 Runway length 5906 ft Runway width 148 ft
Runway elevation 0 ft Runway displaced threshold 0 ft Runway heading 0
Runway 31 Runway length 5906 ft Runway width 148 ft
Runway elevation 0 ft Runway displaced threshold 0 ft Runway heading 0

 AIRPORT FREQUENCIES
Type AFIS Name JUAZEIRO R Frequency 131.75 MHZ

 AIRPORT NEAR NAVIGATION AIDS
Type NDB Name Juazeiro Frequency 205 KHZ



Powered by Virtual Airlines Manager [v2.6.2]